sensor_id;sensor_type;location;lat;lon;timestamp;temperature;humidity
666;DHT22;315;48.738;9.126;2022-12-17T00:02:27;-3.00;99.90
666;DHT22;315;48.738;9.126;2022-12-17T00:05:11;-3.10;99.90
666;DHT22;315;48.738;9.126;2022-12-17T00:07:56;-3.20;99.90
666;DHT22;315;48.738;9.126;2022-12-17T00:10:40;-3.20;99.90
666;DHT22;315;48.738;9.126;2022-12-17T00:13:24;-3.10;99.90
666;DHT22;315;48.738;9.126;2022-12-17T00:16:08;-3.10;99.90
666;DHT22;315;48.738;9.126;2022-12-17T00:18:52;-3.10;99.90
666;DHT22;315;48.738;9.126;2022-12-17T00:21:36;-3.20;99.90
666;DHT22;315;48.738;9.126;2022-12-17T00:24:20;-3.30;99.90
666;DHT22;315;48.738;9.126;2022-12-17T00:27:04;-3.30;99.90
666;DHT22;315;48.738;9.126;2022-12-17T00:29:48;-3.40;99.90
666;DHT22;315;48.738;9.126;2022-12-17T00:32:32;-3.50;99.90
666;DHT22;315;48.738;9.126;2022-12-17T00:35:16;-3.50;99.90
666;DHT22;315;48.738;9.126;2022-12-17T00:38:00;-3.50;99.90
666;DHT22;315;48.738;9.126;2022-12-17T00:40:52;-3.50;99.90
666;DHT22;315;48.738;9.126;2022-12-17T00:43:37;-3.50;99.90
666;DHT22;315;48.738;9.126;2022-12-17T00:46:21;-3.50;99.90
666;DHT22;315;48.738;9.126;2022-12-17T00:49:24;-3.50;99.90
666;DHT22;315;48.738;9.126;2022-12-17T00:52:09;-3.60;99.90
666;DHT22;315;48.738;9.126;2022-12-17T00:54:53;-3.60;99.90
666;DHT22;315;48.738;9.126;2022-12-17T00:57:37;-3.60;99.90
666;DHT22;315;48.738;9.126;2022-12-17T01:00:22;-3.60;99.90
666;DHT22;315;48.738;9.126;2022-12-17T01:03:09;-3.70;99.90
666;DHT22;315;48.738;9.126;2022-12-17T01:05:53;-3.70;99.90
666;DHT22;315;48.738;9.126;2022-12-17T01:08:37;-3.70;99.90
666;DHT22;315;48.738;9.126;2022-12-17T01:11:21;-3.70;99.90
666;DHT22;315;48.738;9.126;2022-12-17T01:14:05;-3.70;99.90
666;DHT22;315;48.738;9.126;2022-12-17T01:16:51;-3.80;99.90
666;DHT22;315;48.738;9.126;2022-12-17T01:19:35;-3.80;99.90
666;DHT22;315;48.738;9.126;2022-12-17T01:22:19;-3.90;99.90
666;DHT22;315;48.738;9.126;2022-12-17T01:25:03;-3.90;99.90
666;DHT22;315;48.738;9.126;2022-12-17T01:27:49;-3.90;99.90
666;DHT22;315;48.738;9.126;2022-12-17T01:30:35;-3.90;99.90
666;DHT22;315;48.738;9.126;2022-12-17T01:33:19;-4.00;99.90
666;DHT22;315;48.738;9.126;2022-12-17T01:36:03;-4.10;99.90
666;DHT22;315;48.738;9.126;2022-12-17T01:38:47;-4.10;99.90
666;DHT22;315;48.738;9.126;2022-12-17T01:41:31;-4.20;99.90
666;DHT22;315;48.738;9.126;2022-12-17T01:47:23;-4.20;99.90
666;DHT22;315;48.738;9.126;2022-12-17T01:50:07;-4.30;99.90
666;DHT22;315;48.738;9.126;2022-12-17T01:52:54;-4.30;99.90
666;DHT22;315;48.738;9.126;2022-12-17T01:55:39;-4.40;99.90
666;DHT22;315;48.738;9.126;2022-12-17T01:58:24;-4.40;99.90
666;DHT22;315;48.738;9.126;2022-12-17T02:01:08;-4.40;99.90
666;DHT22;315;48.738;9.126;2022-12-17T02:03:53;-4.40;99.90
666;DHT22;315;48.738;9.126;2022-12-17T02:06:42;-4.40;99.90
666;DHT22;315;48.738;9.126;2022-12-17T02:10:21;-4.40;99.90
666;DHT22;315;48.738;9.126;2022-12-17T02:12:47;-4.40;99.90
666;DHT22;315;48.738;9.126;2022-12-17T02:15:44;-4.40;99.90
666;DHT22;315;48.738;9.126;2022-12-17T02:18:43;-4.40;99.90
666;DHT22;315;48.738;9.126;2022-12-17T02:21:31;-4.50;99.90
666;DHT22;315;48.738;9.126;2022-12-17T02:24:19;-4.50;99.90
666;DHT22;315;48.738;9.126;2022-12-17T02:27:08;-4.60;99.90
666;DHT22;315;48.738;9.126;2022-12-17T02:29:56;-4.70;99.90
666;DHT22;315;48.738;9.126;2022-12-17T02:32:44;-4.60;99.90
666;DHT22;315;48.738;9.126;2022-12-17T02:35:57;-4.70;99.90
666;DHT22;315;48.738;9.126;2022-12-17T02:38:42;-4.70;99.90
666;DHT22;315;48.738;9.126;2022-12-17T02:41:49;-4.80;99.90
666;DHT22;315;48.738;9.126;2022-12-17T02:44:34;-4.80;99.90
666;DHT22;315;48.738;9.126;2022-12-17T02:47:21;-4.80;99.90
666;DHT22;315;48.738;9.126;2022-12-17T02:50:07;-4.80;99.90
666;DHT22;315;48.738;9.126;2022-12-17T02:52:52;-4.80;99.90
666;DHT22;315;48.738;9.126;2022-12-17T02:55:36;-4.80;99.90
666;DHT22;315;48.738;9.126;2022-12-17T02:58:20;-4.80;99.90
666;DHT22;315;48.738;9.126;2022-12-17T03:01:05;-4.90;99.90
666;DHT22;315;48.738;9.126;2022-12-17T03:03:49;-4.90;99.90
666;DHT22;315;48.738;9.126;2022-12-17T03:06:33;-5.00;99.90
666;DHT22;315;48.738;9.126;2022-12-17T03:09:17;-5.00;99.90
666;DHT22;315;48.738;9.126;2022-12-17T03:12:01;-4.90;99.90
666;DHT22;315;48.738;9.126;2022-12-17T03:14:45;-4.90;99.90
666;DHT22;315;48.738;9.126;2022-12-17T03:17:29;-5.00;99.90
666;DHT22;315;48.738;9.126;2022-12-17T03:20:13;-4.90;99.90
666;DHT22;315;48.738;9.126;2022-12-17T03:23:06;-5.00;99.90
666;DHT22;315;48.738;9.126;2022-12-17T03:25:50;-4.90;99.90
666;DHT22;315;48.738;9.126;2022-12-17T03:28:35;-5.00;99.90
666;DHT22;315;48.738;9.126;2022-12-17T03:31:19;-5.00;99.90
666;DHT22;315;48.738;9.126;2022-12-17T03:34:03;-5.00;99.90
666;DHT22;315;48.738;9.126;2022-12-17T03:36:47;-5.10;99.90
666;DHT22;315;48.738;9.126;2022-12-17T03:39:31;-5.10;99.90
666;DHT22;315;48.738;9.126;2022-12-17T03:42:15;-5.20;99.90
666;DHT22;315;48.738;9.126;2022-12-17T03:44:59;-5.20;99.90
666;DHT22;315;48.738;9.126;2022-12-17T03:47:44;-5.30;99.90
666;DHT22;315;48.738;9.126;2022-12-17T03:50:48;-5.40;99.90
666;DHT22;315;48.738;9.126;2022-12-17T03:53:32;-5.40;99.90
666;DHT22;315;48.738;9.126;2022-12-17T03:56:16;-5.30;99.90
666;DHT22;315;48.738;9.126;2022-12-17T03:59:01;-5.30;99.90
666;DHT22;315;48.738;9.126;2022-12-17T04:01:45;-5.30;99.90
666;DHT22;315;48.738;9.126;2022-12-17T04:04:29;-5.00;99.90
666;DHT22;315;48.738;9.126;2022-12-17T04:07:13;-5.10;99.90
666;DHT22;315;48.738;9.126;2022-12-17T04:09:57;-5.00;99.90
666;DHT22;315;48.738;9.126;2022-12-17T04:12:41;-4.90;99.90
666;DHT22;315;48.738;9.126;2022-12-17T04:15:25;-4.50;99.90
666;DHT22;315;48.738;9.126;2022-12-17T04:18:09;-4.80;99.90
666;DHT22;315;48.738;9.126;2022-12-17T04:20:53;-4.80;99.90
666;DHT22;315;48.738;9.126;2022-12-17T04:23:37;-4.80;99.90
666;DHT22;315;48.738;9.126;2022-12-17T04:26:21;-4.70;99.90
666;DHT22;315;48.738;9.126;2022-12-17T04:29:05;-4.70;99.90
666;DHT22;315;48.738;9.126;2022-12-17T04:31:49;-4.60;99.90
666;DHT22;315;48.738;9.126;2022-12-17T04:34:33;-4.60;99.90
666;DHT22;315;48.738;9.126;2022-12-17T04:37:25;-4.50;99.90
666;DHT22;315;48.738;9.126;2022-12-17T04:40:10;-4.50;99.90
666;DHT22;315;48.738;9.126;2022-12-17T04:42:54;-4.40;99.90
666;DHT22;315;48.738;9.126;2022-12-17T04:45:38;-4.40;99.90
666;DHT22;315;48.738;9.126;2022-12-17T04:48:23;-4.30;99.90
666;DHT22;315;48.738;9.126;2022-12-17T04:51:06;-4.10;99.90
666;DHT22;315;48.738;9.126;2022-12-17T04:53:50;-4.20;99.90
666;DHT22;315;48.738;9.126;2022-12-17T04:56:34;-4.10;99.90
666;DHT22;315;48.738;9.126;2022-12-17T04:59:19;-4.20;99.90
666;DHT22;315;48.738;9.126;2022-12-17T05:02:03;-4.30;99.90
666;DHT22;315;48.738;9.126;2022-12-17T05:04:47;-4.20;99.90
666;DHT22;315;48.738;9.126;2022-12-17T05:07:31;-4.20;99.90
666;DHT22;315;48.738;9.126;2022-12-17T05:10:15;-4.10;99.90
666;DHT22;315;48.738;9.126;2022-12-17T05:12:59;-4.10;99.90
666;DHT22;315;48.738;9.126;2022-12-17T05:15:44;-3.90;99.90
666;DHT22;315;48.738;9.126;2022-12-17T05:18:28;-3.80;99.90
666;DHT22;315;48.738;9.126;2022-12-17T05:21:12;-3.80;99.90
666;DHT22;315;48.738;9.126;2022-12-17T05:23:56;-3.70;99.90
666;DHT22;315;48.738;9.126;2022-12-17T05:26:40;-3.60;99.90
666;DHT22;315;48.738;9.126;2022-12-17T05:29:24;-3.50;99.90
666;DHT22;315;48.738;9.126;2022-12-17T05:32:08;-3.50;99.90
666;DHT22;315;48.738;9.126;2022-12-17T05:34:53;-3.70;99.90
666;DHT22;315;48.738;9.126;2022-12-17T05:37:37;-3.60;99.90
666;DHT22;315;48.738;9.126;2022-12-17T05:40:21;-3.60;99.90
666;DHT22;315;48.738;9.126;2022-12-17T05:43:13;-3.70;99.90
666;DHT22;315;48.738;9.126;2022-12-17T05:45:57;-3.50;99.90
666;DHT22;315;48.738;9.126;2022-12-17T05:48:42;-3.60;99.90
666;DHT22;315;48.738;9.126;2022-12-17T05:51:26;-3.50;99.90
666;DHT22;315;48.738;9.126;2022-12-17T05:54:10;-3.40;99.90
666;DHT22;315;48.738;9.126;2022-12-17T05:56:54;-3.40;99.90
666;DHT22;315;48.738;9.126;2022-12-17T05:59:38;-3.40;99.90
666;DHT22;315;48.738;9.126;2022-12-17T06:02:22;-3.30;99.90
666;DHT22;315;48.738;9.126;2022-12-17T06:05:07;-3.30;99.90
666;DHT22;315;48.738;9.126;2022-12-17T06:07:51;-3.40;99.90
666;DHT22;315;48.738;9.126;2022-12-17T06:10:35;-3.30;99.90
666;DHT22;315;48.738;9.126;2022-12-17T06:13:19;-3.20;99.90
666;DHT22;315;48.738;9.126;2022-12-17T06:16:03;-3.00;99.90
666;DHT22;315;48.738;9.126;2022-12-17T06:18:47;-3.20;99.90
666;DHT22;315;48.738;9.126;2022-12-17T06:21:31;-3.40;99.90
666;DHT22;315;48.738;9.126;2022-12-17T06:24:15;-3.70;99.90
666;DHT22;315;48.738;9.126;2022-12-17T06:26:59;-3.80;99.90
666;DHT22;315;48.738;9.126;2022-12-17T06:29:43;-3.90;99.90
666;DHT22;315;48.738;9.126;2022-12-17T06:32:27;-3.90;99.90
666;DHT22;315;48.738;9.126;2022-12-17T06:35:11;-3.90;99.90
666;DHT22;315;48.738;9.126;2022-12-17T06:38:04;-3.80;99.90
666;DHT22;315;48.738;9.126;2022-12-17T06:40:50;-3.80;99.90
666;DHT22;315;48.738;9.126;2022-12-17T06:43:35;-3.90;99.90
666;DHT22;315;48.738;9.126;2022-12-17T06:46:19;-4.10;99.90
666;DHT22;315;48.738;9.126;2022-12-17T06:49:04;-4.20;99.90
666;DHT22;315;48.738;9.126;2022-12-17T06:51:47;-4.30;99.90
666;DHT22;315;48.738;9.126;2022-12-17T06:54:31;-4.40;99.90
666;DHT22;315;48.738;9.126;2022-12-17T06:57:16;-4.50;99.90
666;DHT22;315;48.738;9.126;2022-12-17T06:59:59;-4.40;99.90
666;DHT22;315;48.738;9.126;2022-12-17T07:02:44;-4.40;99.90
666;DHT22;315;48.738;9.126;2022-12-17T07:05:27;-4.30;99.90
666;DHT22;315;48.738;9.126;2022-12-17T07:08:12;-4.20;99.90
666;DHT22;315;48.738;9.126;2022-12-17T07:10:59;-4.10;99.90
666;DHT22;315;48.738;9.126;2022-12-17T07:13:43;-4.20;99.90
666;DHT22;315;48.738;9.126;2022-12-17T07:16:27;-4.20;99.90
666;DHT22;315;48.738;9.126;2022-12-17T07:19:11;-4.20;99.90
666;DHT22;315;48.738;9.126;2022-12-17T07:21:55;-4.20;99.90
666;DHT22;315;48.738;9.126;2022-12-17T07:24:40;-4.20;99.90
666;DHT22;315;48.738;9.126;2022-12-17T07:27:24;-4.10;99.90
666;DHT22;315;48.738;9.126;2022-12-17T07:30:08;-4.10;99.90
666;DHT22;315;48.738;9.126;2022-12-17T07:33:06;-4.20;99.90
666;DHT22;315;48.738;9.126;2022-12-17T07:35:54;-4.30;99.90
666;DHT22;315;48.738;9.126;2022-12-17T07:38:38;-4.30;99.90
666;DHT22;315;48.738;9.126;2022-12-17T07:41:23;-4.50;99.90
666;DHT22;315;48.738;9.126;2022-12-17T07:44:07;-4.50;99.90
666;DHT22;315;48.738;9.126;2022-12-17T07:46:51;-4.60;99.90
666;DHT22;315;48.738;9.126;2022-12-17T07:49:35;-4.60;99.90
666;DHT22;315;48.738;9.126;2022-12-17T07:52:19;-4.60;99.90
666;DHT22;315;48.738;9.126;2022-12-17T07:55:03;-4.60;99.90
666;DHT22;315;48.738;9.126;2022-12-17T07:57:55;-4.60;99.90
666;DHT22;315;48.738;9.126;2022-12-17T08:00:40;-4.60;99.90
666;DHT22;315;48.738;9.126;2022-12-17T08:03:24;-4.50;99.90
666;DHT22;315;48.738;9.126;2022-12-17T08:06:08;-4.50;99.90
666;DHT22;315;48.738;9.126;2022-12-17T08:08:52;-4.50;99.90
666;DHT22;315;48.738;9.126;2022-12-17T08:11:36;-4.40;99.90
666;DHT22;315;48.738;9.126;2022-12-17T08:14:20;-4.40;99.90
666;DHT22;315;48.738;9.126;2022-12-17T08:17:04;-4.30;99.90
666;DHT22;315;48.738;9.126;2022-12-17T08:19:48;-4.20;99.90
666;DHT22;315;48.738;9.126;2022-12-17T08:22:32;-4.20;99.90
666;DHT22;315;48.738;9.126;2022-12-17T08:25:16;-4.40;99.90
666;DHT22;315;48.738;9.126;2022-12-17T08:28:00;-4.40;99.90
666;DHT22;315;48.738;9.126;2022-12-17T08:30:48;-4.20;99.90
666;DHT22;315;48.738;9.126;2022-12-17T08:33:33;-4.00;99.90
666;DHT22;315;48.738;9.126;2022-12-17T08:36:17;-3.80;99.90
666;DHT22;315;48.738;9.126;2022-12-17T08:39:01;-3.80;99.90
666;DHT22;315;48.738;9.126;2022-12-17T08:41:45;-3.90;99.90
666;DHT22;315;48.738;9.126;2022-12-17T08:44:29;-3.70;99.90
666;DHT22;315;48.738;9.126;2022-12-17T08:47:13;-3.80;99.90
666;DHT22;315;48.738;9.126;2022-12-17T08:49:57;-3.70;99.90
666;DHT22;315;48.738;9.126;2022-12-17T08:52:41;-3.70;99.90
666;DHT22;315;48.738;9.126;2022-12-17T08:55:25;-3.80;99.90
666;DHT22;315;48.738;9.126;2022-12-17T08:58:09;-3.80;99.90
666;DHT22;315;48.738;9.126;2022-12-17T09:00:57;-3.90;99.90
666;DHT22;315;48.738;9.126;2022-12-17T09:03:41;-3.80;99.90
666;DHT22;315;48.738;9.126;2022-12-17T09:06:25;-3.70;99.90
666;DHT22;315;48.738;9.126;2022-12-17T09:09:09;-3.50;99.90
666;DHT22;315;48.738;9.126;2022-12-17T09:11:53;-3.60;99.90
666;DHT22;315;48.738;9.126;2022-12-17T09:14:37;-3.60;99.90
666;DHT22;315;48.738;9.126;2022-12-17T09:17:21;-3.50;99.90
666;DHT22;315;48.738;9.126;2022-12-17T09:20:06;-3.50;99.90
666;DHT22;315;48.738;9.126;2022-12-17T09:22:50;-3.30;99.90
666;DHT22;315;48.738;9.126;2022-12-17T09:25:34;-3.30;99.90
666;DHT22;315;48.738;9.126;2022-12-17T09:28:18;-3.10;99.90
666;DHT22;315;48.738;9.126;2022-12-17T09:31:02;-3.00;99.90
666;DHT22;315;48.738;9.126;2022-12-17T09:33:46;-2.90;99.90
666;DHT22;315;48.738;9.126;2022-12-17T09:36:30;-2.90;99.90
666;DHT22;315;48.738;9.126;2022-12-17T09:39:14;-2.90;99.90
666;DHT22;315;48.738;9.126;2022-12-17T09:48:10;-3.20;99.90
666;DHT22;315;48.738;9.126;2022-12-17T09:50:58;-3.10;99.90
666;DHT22;315;48.738;9.126;2022-12-17T09:53:50;-3.20;99.90
666;DHT22;315;48.738;9.126;2022-12-17T09:56:35;-3.30;99.90
666;DHT22;315;48.738;9.126;2022-12-17T09:59:23;-3.30;99.90
666;DHT22;315;48.738;9.126;2022-12-17T10:02:19;-3.20;99.90
666;DHT22;315;48.738;9.126;2022-12-17T10:05:06;-3.00;99.90
666;DHT22;315;48.738;9.126;2022-12-17T10:07:53;-2.90;99.90
666;DHT22;315;48.738;9.126;2022-12-17T10:10:43;-2.80;99.90
666;DHT22;315;48.738;9.126;2022-12-17T10:13:28;-2.80;99.90
666;DHT22;315;48.738;9.126;2022-12-17T10:16:23;-2.80;99.90
666;DHT22;315;48.738;9.126;2022-12-17T10:19:18;-2.60;99.90
666;DHT22;315;48.738;9.126;2022-12-17T10:22:13;-2.40;99.90
666;DHT22;315;48.738;9.126;2022-12-17T10:25:19;-2.10;99.90
666;DHT22;315;48.738;9.126;2022-12-17T10:28:08;-1.90;99.90
666;DHT22;315;48.738;9.126;2022-12-17T10:30:53;-1.40;99.90
666;DHT22;315;48.738;9.126;2022-12-17T10:33:39;-1.40;99.90
666;DHT22;315;48.738;9.126;2022-12-17T10:36:24;-1.40;99.90
666;DHT22;315;48.738;9.126;2022-12-17T10:39:21;-1.70;99.90
666;DHT22;315;48.738;9.126;2022-12-17T10:42:24;-1.90;99.90
666;DHT22;315;48.738;9.126;2022-12-17T10:45:28;-1.70;99.90
666;DHT22;315;48.738;9.126;2022-12-17T10:48:22;-1.40;99.90
666;DHT22;315;48.738;9.126;2022-12-17T10:51:36;-1.40;99.90
666;DHT22;315;48.738;9.126;2022-12-17T10:54:29;-1.30;99.90
666;DHT22;315;48.738;9.126;2022-12-17T10:57:30;-1.10;99.90
666;DHT22;315;48.738;9.126;2022-12-17T11:03:18;-0.50;99.90
666;DHT22;315;48.738;9.126;2022-12-17T11:06:04;-0.20;99.90
666;DHT22;315;48.738;9.126;2022-12-17T11:08:49;0.30;99.90
666;DHT22;315;48.738;9.126;2022-12-17T11:11:33;0.60;99.90
666;DHT22;315;48.738;9.126;2022-12-17T11:14:17;2.80;99.90
666;DHT22;315;48.738;9.126;2022-12-17T11:17:04;4.30;99.90
666;DHT22;315;48.738;9.126;2022-12-17T11:19:55;6.60;99.90
666;DHT22;315;48.738;9.126;2022-12-17T11:22:50;7.50;93.90
666;DHT22;315;48.738;9.126;2022-12-17T11:28:35;3.90;99.90
666;DHT22;315;48.738;9.126;2022-12-17T11:34:48;2.80;99.90
666;DHT22;315;48.738;9.126;2022-12-17T11:37:42;3.20;99.90
666;DHT22;315;48.738;9.126;2022-12-17T11:40:39;2.60;99.90
666;DHT22;315;48.738;9.126;2022-12-17T11:43:45;2.40;99.90
666;DHT22;315;48.738;9.126;2022-12-17T11:50:02;4.90;99.90
666;DHT22;315;48.738;9.126;2022-12-17T11:58:51;7.80;93.70
666;DHT22;315;48.738;9.126;2022-12-17T12:01:52;9.20;90.20
666;DHT22;315;48.738;9.126;2022-12-17T12:07:41;7.70;91.80
666;DHT22;315;48.738;9.126;2022-12-17T12:10:48;6.90;90.50
666;DHT22;315;48.738;9.126;2022-12-17T12:17:15;9.20;82.70
666;DHT22;315;48.738;9.126;2022-12-17T12:20:11;9.70;75.70
666;DHT22;315;48.738;9.126;2022-12-17T12:22:58;9.80;74.80
666;DHT22;315;48.738;9.126;2022-12-17T12:26:11;9.60;74.40
666;DHT22;315;48.738;9.126;2022-12-17T12:29:07;9.70;72.60
666;DHT22;315;48.738;9.126;2022-12-17T12:32:21;8.30;74.60
666;DHT22;315;48.738;9.126;2022-12-17T12:35:13;9.10;77.70
666;DHT22;315;48.738;9.126;2022-12-17T12:37:59;9.80;74.40
666;DHT22;315;48.738;9.126;2022-12-17T12:41:01;10.10;70.50
666;DHT22;315;48.738;9.126;2022-12-17T12:43:54;8.90;73.90
666;DHT22;315;48.738;9.126;2022-12-17T12:46:55;8.10;77.20
666;DHT22;315;48.738;9.126;2022-12-17T12:49:49;7.60;78.50
666;DHT22;315;48.738;9.126;2022-12-17T12:52:36;8.40;77.50
666;DHT22;315;48.738;9.126;2022-12-17T12:55:20;9.30;74.90
666;DHT22;315;48.738;9.126;2022-12-17T12:58:23;8.00;76.00
666;DHT22;315;48.738;9.126;2022-12-17T13:01:07;7.80;78.60
666;DHT22;315;48.738;9.126;2022-12-17T13:03:54;9.40;76.30
666;DHT22;315;48.738;9.126;2022-12-17T13:19:45;10.50;64.10
666;DHT22;315;48.738;9.126;2022-12-17T13:22:25;12.00;62.50
666;DHT22;315;48.738;9.126;2022-12-17T13:24:54;13.10;59.60
666;DHT22;315;48.738;9.126;2022-12-17T13:27:49;13.50;57.10
666;DHT22;315;48.738;9.126;2022-12-17T13:35:56;9.90;61.00
666;DHT22;315;48.738;9.126;2022-12-17T13:38:37;8.80;64.30
666;DHT22;315;48.738;9.126;2022-12-17T13:41:11;7.10;69.30
666;DHT22;315;48.738;9.126;2022-12-17T13:43:52;5.70;76.90
666;DHT22;315;48.738;9.126;2022-12-17T13:46:22;4.50;88.20
666;DHT22;315;48.738;9.126;2022-12-17T13:49:18;3.60;93.60
666;DHT22;315;48.738;9.126;2022-12-17T13:51:44;2.80;98.10
666;DHT22;315;48.738;9.126;2022-12-17T13:54:16;1.70;99.90
666;DHT22;315;48.738;9.126;2022-12-17T13:56:43;0.80;99.90
666;DHT22;315;48.738;9.126;2022-12-17T13:59:35;0.40;99.90
666;DHT22;315;48.738;9.126;2022-12-17T14:02:04;-0.10;99.90
666;DHT22;315;48.738;9.126;2022-12-17T14:04:29;-0.30;99.90
666;DHT22;315;48.738;9.126;2022-12-17T14:06:59;-0.50;99.90
666;DHT22;315;48.738;9.126;2022-12-17T14:09:41;-0.80;99.90
666;DHT22;315;48.738;9.126;2022-12-17T14:12:11;-1.20;99.90
666;DHT22;315;48.738;9.126;2022-12-17T14:14:50;-1.60;99.90
666;DHT22;315;48.738;9.126;2022-12-17T14:17:19;-1.80;99.90
666;DHT22;315;48.738;9.126;2022-12-17T14:19:46;-1.80;99.90
666;DHT22;315;48.738;9.126;2022-12-17T14:22:21;-1.70;99.90
666;DHT22;315;48.738;9.126;2022-12-17T14:24:48;-1.60;99.90
666;DHT22;315;48.738;9.126;2022-12-17T14:27:23;-1.50;99.90
666;DHT22;315;48.738;9.126;2022-12-17T14:29:49;-1.50;99.90
666;DHT22;315;48.738;9.126;2022-12-17T14:32:33;-1.70;99.90
666;DHT22;315;48.738;9.126;2022-12-17T14:35:00;-1.70;99.90
666;DHT22;315;48.738;9.126;2022-12-17T14:37:26;-1.60;99.90
666;DHT22;315;48.738;9.126;2022-12-17T14:39:55;-1.70;99.90
666;DHT22;315;48.738;9.126;2022-12-17T14:42:24;-2.00;99.90
666;DHT22;315;48.738;9.126;2022-12-17T14:45:05;-2.30;99.90
666;DHT22;315;48.738;9.126;2022-12-17T14:47:33;-2.70;99.90
666;DHT22;315;48.738;9.126;2022-12-17T14:52:50;-2.90;99.90
666;DHT22;315;48.738;9.126;2022-12-17T14:55:29;-3.20;99.90
666;DHT22;315;48.738;9.126;2022-12-17T15:00:41;-2.90;99.90
666;DHT22;315;48.738;9.126;2022-12-17T15:03:21;-2.80;99.90
666;DHT22;315;48.738;9.126;2022-12-17T15:06:11;-2.80;99.90
666;DHT22;315;48.738;9.126;2022-12-17T15:08:40;-2.90;99.90
666;DHT22;315;48.738;9.126;2022-12-17T15:11:06;-3.00;99.90
666;DHT22;315;48.738;9.126;2022-12-17T15:13:31;-3.20;99.90
666;DHT22;315;48.738;9.126;2022-12-17T15:15:57;-3.60;99.90
666;DHT22;315;48.738;9.126;2022-12-17T15:18:22;-3.40;99.90
666;DHT22;315;48.738;9.126;2022-12-17T15:20:48;-3.50;99.90
666;DHT22;315;48.738;9.126;2022-12-17T15:23:20;-3.60;99.90
666;DHT22;315;48.738;9.126;2022-12-17T15:25:48;-3.60;99.90
666;DHT22;315;48.738;9.126;2022-12-17T15:28:15;-3.60;99.90
666;DHT22;315;48.738;9.126;2022-12-17T15:30:41;-3.60;99.90
666;DHT22;315;48.738;9.126;2022-12-17T15:33:07;-3.60;99.90
666;DHT22;315;48.738;9.126;2022-12-17T15:35:34;-3.60;99.90
666;DHT22;315;48.738;9.126;2022-12-17T15:38:00;-3.80;99.90
666;DHT22;315;48.738;9.126;2022-12-17T15:40:26;-4.00;99.90
666;DHT22;315;48.738;9.126;2022-12-17T15:42:51;-4.00;99.90
666;DHT22;315;48.738;9.126;2022-12-17T15:48:04;-4.10;99.90
666;DHT22;315;48.738;9.126;2022-12-17T15:50:30;-4.10;99.90
666;DHT22;315;48.738;9.126;2022-12-17T15:52:56;-4.10;99.90
666;DHT22;315;48.738;9.126;2022-12-17T15:55:21;-4.20;99.90
666;DHT22;315;48.738;9.126;2022-12-17T15:57:47;-4.20;99.90
666;DHT22;315;48.738;9.126;2022-12-17T16:00:13;-4.20;99.90
666;DHT22;315;48.738;9.126;2022-12-17T16:02:38;-4.30;99.90
666;DHT22;315;48.738;9.126;2022-12-17T16:05:04;-4.30;99.90
666;DHT22;315;48.738;9.126;2022-12-17T16:07:30;-4.40;99.90
666;DHT22;315;48.738;9.126;2022-12-17T16:09:56;-4.40;99.90
666;DHT22;315;48.738;9.126;2022-12-17T16:12:21;-4.40;99.90
666;DHT22;315;48.738;9.126;2022-12-17T16:14:47;-4.40;99.90
666;DHT22;315;48.738;9.126;2022-12-17T16:17:12;-4.50;99.90
666;DHT22;315;48.738;9.126;2022-12-17T16:19:38;-4.50;99.90
666;DHT22;315;48.738;9.126;2022-12-17T16:22:04;-4.60;99.90
666;DHT22;315;48.738;9.126;2022-12-17T16:24:29;-4.50;99.90
666;DHT22;315;48.738;9.126;2022-12-17T16:26:55;-4.60;99.90
666;DHT22;315;48.738;9.126;2022-12-17T16:29:20;-4.60;99.90
666;DHT22;315;48.738;9.126;2022-12-17T16:31:48;-4.70;99.90
666;DHT22;315;48.738;9.126;2022-12-17T16:34:13;-4.80;99.90
666;DHT22;315;48.738;9.126;2022-12-17T16:36:39;-4.80;99.90
666;DHT22;315;48.738;9.126;2022-12-17T16:39:04;-4.80;99.90
666;DHT22;315;48.738;9.126;2022-12-17T16:41:31;-4.80;99.90
666;DHT22;315;48.738;9.126;2022-12-17T16:43:56;-4.80;99.90
666;DHT22;315;48.738;9.126;2022-12-17T16:46:36;-4.80;99.90
666;DHT22;315;48.738;9.126;2022-12-17T16:49:10;-4.90;99.90
666;DHT22;315;48.738;9.126;2022-12-17T16:51:36;-4.90;99.90
666;DHT22;315;48.738;9.126;2022-12-17T16:54:07;-4.80;99.90
666;DHT22;315;48.738;9.126;2022-12-17T16:56:34;-4.90;99.90
666;DHT22;315;48.738;9.126;2022-12-17T16:59:02;-4.90;99.90
666;DHT22;315;48.738;9.126;2022-12-17T17:01:28;-4.90;99.90
666;DHT22;315;48.738;9.126;2022-12-17T17:03:55;-5.00;99.90
666;DHT22;315;48.738;9.126;2022-12-17T17:06:21;-5.10;99.90
666;DHT22;315;48.738;9.126;2022-12-17T17:08:47;-5.20;99.90
666;DHT22;315;48.738;9.126;2022-12-17T17:11:18;-5.20;99.90
666;DHT22;315;48.738;9.126;2022-12-17T17:13:46;-5.20;99.90
666;DHT22;315;48.738;9.126;2022-12-17T17:16:11;-5.20;99.90
666;DHT22;315;48.738;9.126;2022-12-17T17:18:38;-5.30;99.90
666;DHT22;315;48.738;9.126;2022-12-17T17:23:39;-5.30;99.90
666;DHT22;315;48.738;9.126;2022-12-17T17:26:04;-5.30;99.90
666;DHT22;315;48.738;9.126;2022-12-17T17:28:30;-5.40;99.90
666;DHT22;315;48.738;9.126;2022-12-17T17:31:00;-5.40;99.90
666;DHT22;315;48.738;9.126;2022-12-17T17:33:33;-5.50;99.90
666;DHT22;315;48.738;9.126;2022-12-17T17:36:07;-5.60;99.90
666;DHT22;315;48.738;9.126;2022-12-17T17:38:34;-5.70;99.90
666;DHT22;315;48.738;9.126;2022-12-17T17:41:01;-5.70;99.90
666;DHT22;315;48.738;9.126;2022-12-17T17:43:27;-5.70;99.90
666;DHT22;315;48.738;9.126;2022-12-17T17:45:53;-5.70;99.90
666;DHT22;315;48.738;9.126;2022-12-17T17:48:20;-5.70;99.90
666;DHT22;315;48.738;9.126;2022-12-17T17:51:03;-5.70;99.90
666;DHT22;315;48.738;9.126;2022-12-17T17:53:29;-5.70;99.90
666;DHT22;315;48.738;9.126;2022-12-17T17:56:01;-5.70;99.90
666;DHT22;315;48.738;9.126;2022-12-17T17:58:28;-5.70;99.90
666;DHT22;315;48.738;9.126;2022-12-17T18:00:53;-5.70;99.90
666;DHT22;315;48.738;9.126;2022-12-17T18:03:19;-5.70;99.90
666;DHT22;315;48.738;9.126;2022-12-17T18:05:47;-5.70;99.90
666;DHT22;315;48.738;9.126;2022-12-17T18:08:13;-5.80;99.90
666;DHT22;315;48.738;9.126;2022-12-17T18:10:38;-5.80;99.90
666;DHT22;315;48.738;9.126;2022-12-17T18:13:04;-5.80;99.90
666;DHT22;315;48.738;9.126;2022-12-17T18:15:48;-5.90;99.90
666;DHT22;315;48.738;9.126;2022-12-17T18:18:13;-5.90;99.90
666;DHT22;315;48.738;9.126;2022-12-17T18:20:39;-5.90;99.90
666;DHT22;315;48.738;9.126;2022-12-17T18:23:05;-5.80;99.90
666;DHT22;315;48.738;9.126;2022-12-17T18:25:30;-5.90;99.90
666;DHT22;315;48.738;9.126;2022-12-17T18:27:56;-5.90;99.90
666;DHT22;315;48.738;9.126;2022-12-17T18:30:21;-5.80;99.90
666;DHT22;315;48.738;9.126;2022-12-17T18:32:47;-5.80;99.90
666;DHT22;315;48.738;9.126;2022-12-17T18:35:12;-5.80;99.90
666;DHT22;315;48.738;9.126;2022-12-17T18:37:38;-5.80;99.90
666;DHT22;315;48.738;9.126;2022-12-17T18:40:05;-5.80;99.90
666;DHT22;315;48.738;9.126;2022-12-17T18:42:31;-5.80;99.90
666;DHT22;315;48.738;9.126;2022-12-17T18:45:15;-5.70;99.90
666;DHT22;315;48.738;9.126;2022-12-17T18:47:41;-5.70;99.90
666;DHT22;315;48.738;9.126;2022-12-17T18:50:09;-5.70;99.90
666;DHT22;315;48.738;9.126;2022-12-17T18:52:34;-5.70;99.90
666;DHT22;315;48.738;9.126;2022-12-17T18:55:00;-5.70;99.90
666;DHT22;315;48.738;9.126;2022-12-17T18:57:25;-5.60;99.90
666;DHT22;315;48.738;9.126;2022-12-17T18:59:51;-5.60;99.90
666;DHT22;315;48.738;9.126;2022-12-17T19:02:16;-5.60;99.90
666;DHT22;315;48.738;9.126;2022-12-17T19:04:42;-5.70;99.90
666;DHT22;315;48.738;9.126;2022-12-17T19:07:07;-5.70;99.90
666;DHT22;315;48.738;9.126;2022-12-17T19:09:33;-5.60;99.90
666;DHT22;315;48.738;9.126;2022-12-17T19:12:00;-5.60;99.90
666;DHT22;315;48.738;9.126;2022-12-17T19:14:25;-5.50;99.90